sensor_id;sensor_type;location;lat;lon;timestamp;P1;durP1;ratioP1;P2;durP2;ratioP2
80714;SDS011;70086;50.780;15.074;2023-06-22T05:23:10;12.00;;;7.93;;
80714;SDS011;70086;50.780;15.074;2023-06-22T05:23:31;11.83;;;8.50;;
80714;SDS011;70086;50.780;15.074;2023-06-22T05:23:53;10.75;;;8.57;;
80714;SDS011;70086;50.780;15.074;2023-06-22T05:24:14;11.23;;;8.77;;
80714;SDS011;70086;50.780;15.074;2023-06-22T05:24:35;12.63;;;9.00;;
80714;SDS011;70086;50.780;15.074;2023-06-22T05:24:56;12.48;;;9.32;;
80714;SDS011;70086;50.780;15.074;2023-06-22T05:25:17;11.40;;;8.88;;
80714;SDS011;70086;50.780;15.074;2023-06-22T05:25:38;11.25;;;8.70;;
80714;SDS011;70086;50.780;15.074;2023-06-22T05:25:59;11.05;;;9.07;;
80714;SDS011;70086;50.780;15.074;2023-06-22T05:26:20;11.55;;;9.27;;
80714;SDS011;70086;50.780;15.074;2023-06-22T05:26:41;11.88;;;9.55;;
80714;SDS011;70086;50.780;15.074;2023-06-22T05:27:03;12.70;;;9.60;;
80714;SDS011;70086;50.780;15.074;2023-06-22T05:27:24;12.23;;;9.02;;
80714;SDS011;70086;50.780;15.074;2023-06-22T05:27:45;11.05;;;9.20;;
80714;SDS011;70086;50.780;15.074;2023-06-22T05:28:06;13.15;;;9.52;;
80714;SDS011;70086;50.780;15.074;2023-06-22T05:28:31;13.00;;;9.35;;
80714;SDS011;70086;50.780;15.074;2023-06-22T05:28:53;11.18;;;9.55;;
80714;SDS011;70086;50.780;15.074;2023-06-22T05:29:14;12.80;;;9.82;;
80714;SDS011;70086;50.780;15.074;2023-06-22T05:29:36;12.80;;;10.00;;
80714;SDS011;70086;50.780;15.074;2023-06-22T05:29:57;11.88;;;10.27;;
80714;SDS011;70086;50.780;15.074;2023-06-22T05:30:18;12.80;;;10.02;;
80714;SDS011;70086;50.780;15.074;2023-06-22T05:30:39;12.85;;;9.73;;
80714;SDS011;70086;50.780;15.074;2023-06-22T05:31:00;12.67;;;9.53;;
80714;SDS011;70086;50.780;15.074;2023-06-22T05:31:21;12.95;;;9.38;;
80714;SDS011;70086;50.780;15.074;2023-06-22T05:31:42;11.35;;;9.02;;
80714;SDS011;70086;50.780;15.074;2023-06-22T05:32:03;12.88;;;9.50;;
80714;SDS011;70086;50.780;15.074;2023-06-22T05:32:24;12.15;;;9.98;;
80714;SDS011;70086;50.780;15.074;2023-06-22T05:32:45;12.70;;;9.68;;
80714;SDS011;70086;50.780;15.074;2023-06-22T05:33:06;12.00;;;9.43;;
80714;SDS011;70086;50.780;15.074;2023-06-22T05:33:27;12.02;;;9.40;;
80714;SDS011;70086;50.780;15.074;2023-06-22T05:33:49;12.43;;;9.50;;
80714;SDS011;70086;50.780;15.074;2023-06-22T05:34:10;13.38;;;9.30;;
80714;SDS011;70086;50.780;15.074;2023-06-22T05:34:31;11.50;;;9.35;;
80714;SDS011;70086;50.780;15.074;2023-06-22T05:34:52;12.55;;;9.35;;
80714;SDS011;70086;50.780;15.074;2023-06-22T05:35:13;12.52;;;9.57;;
80714;SDS011;70086;50.780;15.074;2023-06-22T05:35:34;10.60;;;9.02;;
80714;SDS011;70086;50.780;15.074;2023-06-22T05:35:55;12.00;;;9.05;;
80714;SDS011;70086;50.780;15.074;2023-06-22T05:36:16;12.55;;;9.20;;
80714;SDS011;70086;50.780;15.074;2023-06-22T05:36:39;12.82;;;9.20;;
80714;SDS011;70086;50.780;15.074;2023-06-22T05:37:00;10.63;;;9.23;;
80714;SDS011;70086;50.780;15.074;2023-06-22T05:37:21;10.73;;;9.38;;
80714;SDS011;70086;50.780;15.074;2023-06-22T05:37:42;12.98;;;9.50;;
80714;SDS011;70086;50.780;15.074;2023-06-22T05:38:03;12.93;;;9.30;;
80714;SDS011;70086;50.780;15.074;2023-06-22T05:38:24;13.43;;;9.63;;
80714;SDS011;70086;50.780;15.074;2023-06-22T05:38:45;13.45;;;9.70;;
80714;SDS011;70086;50.780;15.074;2023-06-22T05:39:13;13.13;;;9.67;;
80714;SDS011;70086;50.780;15.074;2023-06-22T05:39:35;12.40;;;9.30;;
80714;SDS011;70086;50.780;15.074;2023-06-22T05:39:57;10.38;;;9.27;;
80714;SDS011;70086;50.780;15.074;2023-06-22T05:40:18;11.35;;;9.23;;
80714;SDS011;70086;50.780;15.074;2023-06-22T05:40:39;11.80;;;9.02;;
80714;SDS011;70086;50.780;15.074;2023-06-22T05:41:00;12.30;;;9.32;;
80714;SDS011;70086;50.780;15.074;2023-06-22T05:41:21;11.65;;;9.15;;
80714;SDS011;70086;50.780;15.074;2023-06-22T05:41:43;12.45;;;9.48;;
80714;SDS011;70086;50.780;15.074;2023-06-22T05:42:07;11.45;;;9.50;;
80714;SDS011;70086;50.780;15.074;2023-06-22T05:42:28;12.13;;;8.95;;
80714;SDS011;70086;50.780;15.074;2023-06-22T05:42:49;10.82;;;9.00;;
80714;SDS011;70086;50.780;15.074;2023-06-22T05:43:10;10.90;;;9.15;;
80714;SDS011;70086;50.780;15.074;2023-06-22T05:43:31;11.52;;;9.30;;
80714;SDS011;70086;50.780;15.074;2023-06-22T05:43:52;10.93;;;9.02;;
80714;SDS011;70086;50.780;15.074;2023-06-22T05:44:13;9.65;;;8.45;;
80714;SDS011;70086;50.780;15.074;2023-06-22T05:44:34;9.88;;;8.57;;
80714;SDS011;70086;50.780;15.074;2023-06-22T05:44:55;10.32;;;8.90;;
80714;SDS011;70086;50.780;15.074;2023-06-22T05:45:18;12.40;;;9.30;;
80714;SDS011;70086;50.780;15.074;2023-06-22T05:45:39;12.98;;;9.45;;
80714;SDS011;70086;50.780;15.074;2023-06-22T05:46:01;11.25;;;9.10;;
80714;SDS011;70086;50.780;15.074;2023-06-22T05:46:22;12.27;;;9.02;;
80714;SDS011;70086;50.780;15.074;2023-06-22T05:46:44;12.60;;;9.23;;
80714;SDS011;70086;50.780;15.074;2023-06-22T05:47:06;10.60;;;9.32;;
80714;SDS011;70086;50.780;15.074;2023-06-22T05:47:27;12.38;;;9.57;;
80714;SDS011;70086;50.780;15.074;2023-06-22T05:47:48;10.75;;;9.30;;
80714;SDS011;70086;50.780;15.074;2023-06-22T05:48:09;11.40;;;9.30;;
80714;SDS011;70086;50.780;15.074;2023-06-22T05:48:30;13.90;;;9.50;;
80714;SDS011;70086;50.780;15.074;2023-06-22T05:48:51;15.07;;;10.02;;
80714;SDS011;70086;50.780;15.074;2023-06-22T05:49:12;13.77;;;9.52;;
80714;SDS011;70086;50.780;15.074;2023-06-22T05:49:33;12.95;;;9.52;;
80714;SDS011;70086;50.780;15.074;2023-06-22T05:49:54;12.48;;;9.65;;
80714;SDS011;70086;50.780;15.074;2023-06-22T05:50:15;11.73;;;9.27;;
80714;SDS011;70086;50.780;15.074;2023-06-22T05:50:36;11.57;;;8.95;;
80714;SDS011;70086;50.780;15.074;2023-06-22T05:50:58;12.43;;;9.65;;
80714;SDS011;70086;50.780;15.074;2023-06-22T05:51:19;13.93;;;9.73;;
80714;SDS011;70086;50.780;15.074;2023-06-22T05:51:40;14.40;;;9.73;;
80714;SDS011;70086;50.780;15.074;2023-06-22T05:52:01;11.40;;;9.82;;
80714;SDS011;70086;50.780;15.074;2023-06-22T05:52:22;12.45;;;9.43;;
80714;SDS011;70086;50.780;15.074;2023-06-22T05:52:43;12.05;;;9.57;;
80714;SDS011;70086;50.780;15.074;2023-06-22T05:53:04;11.63;;;9.20;;
80714;SDS011;70086;50.780;15.074;2023-06-22T05:53:26;10.63;;;9.40;;
80714;SDS011;70086;50.780;15.074;2023-06-22T05:53:47;11.13;;;9.68;;
80714;SDS011;70086;50.780;15.074;2023-06-22T05:54:09;11.15;;;9.55;;
80714;SDS011;70086;50.780;15.074;2023-06-22T05:54:33;11.75;;;9.93;;
80714;SDS011;70086;50.780;15.074;2023-06-22T05:54:54;11.07;;;9.48;;
80714;SDS011;70086;50.780;15.074;2023-06-22T05:55:15;11.73;;;9.07;;
80714;SDS011;70086;50.780;15.074;2023-06-22T05:55:38;12.25;;;8.95;;
80714;SDS011;70086;50.780;15.074;2023-06-22T05:55:59;12.20;;;9.38;;
80714;SDS011;70086;50.780;15.074;2023-06-22T05:56:20;12.77;;;9.18;;
80714;SDS011;70086;50.780;15.074;2023-06-22T05:56:41;14.77;;;8.93;;
80714;SDS011;70086;50.780;15.074;2023-06-22T05:57:02;13.93;;;8.70;;
80714;SDS011;70086;50.780;15.074;2023-06-22T05:57:23;11.43;;;8.80;;
80714;SDS011;70086;50.780;15.074;2023-06-22T05:57:44;11.52;;;9.30;;
80714;SDS011;70086;50.780;15.074;2023-06-22T05:58:05;10.98;;;8.88;;
80714;SDS011;70086;50.780;15.074;2023-06-22T05:58:26;12.27;;;8.90;;
80714;SDS011;70086;50.780;15.074;2023-06-22T05:58:47;12.27;;;8.75;;
80714;SDS011;70086;50.780;15.074;2023-06-22T05:59:08;11.87;;;8.63;;
80714;SDS011;70086;50.780;15.074;2023-06-22T05:59:29;12.45;;;8.52;;
80714;SDS011;70086;50.780;15.074;2023-06-22T05:59:50;12.65;;;9.00;;
80714;SDS011;70086;50.780;15.074;2023-06-22T06:00:13;13.32;;;8.90;;
80714;SDS011;70086;50.780;15.074;2023-06-22T06:00:35;12.43;;;8.52;;
80714;SDS011;70086;50.780;15.074;2023-06-22T06:00:56;11.95;;;8.93;;
80714;SDS011;70086;50.780;15.074;2023-06-22T06:01:17;12.23;;;9.00;;
80714;SDS011;70086;50.780;15.074;2023-06-22T06:01:38;12.15;;;9.23;;
80714;SDS011;70086;50.780;15.074;2023-06-22T06:02:00;12.18;;;8.80;;
80714;SDS011;70086;50.780;15.074;2023-06-22T06:02:21;11.98;;;8.82;;
80714;SDS011;70086;50.780;15.074;2023-06-22T06:02:42;11.63;;;9.30;;
80714;SDS011;70086;50.780;15.074;2023-06-22T13:12:53;8.27;;;7.32;;
80714;SDS011;70086;50.780;15.074;2023-06-22T13:13:20;8.75;;;7.88;;
80714;SDS011;70086;50.780;15.074;2023-06-22T13:13:41;8.65;;;7.85;;
80714;SDS011;70086;50.780;15.074;2023-06-22T13:14:02;8.23;;;7.40;;
80714;SDS011;70086;50.780;15.074;2023-06-22T13:14:23;10.07;;;7.60;;
80714;SDS011;70086;50.780;15.074;2023-06-22T13:14:44;8.20;;;7.35;;
80714;SDS011;70086;50.780;15.074;2023-06-22T13:15:06;8.85;;;7.30;;
80714;SDS011;70086;50.780;15.074;2023-06-22T13:15:28;8.98;;;7.43;;
80714;SDS011;70086;50.780;15.074;2023-06-22T13:15:48;9.27;;;7.57;;
80714;SDS011;70086;50.780;15.074;2023-06-22T13:16:10;8.95;;;7.50;;
80714;SDS011;70086;50.780;15.074;2023-06-22T13:16:30;8.52;;;7.22;;
80714;SDS011;70086;50.780;15.074;2023-06-22T13:16:51;8.93;;;8.02;;
80714;SDS011;70086;50.780;15.074;2023-06-22T13:17:13;9.13;;;8.23;;
80714;SDS011;70086;50.780;15.074;2023-06-22T13:17:34;9.73;;;8.40;;
80714;SDS011;70086;50.780;15.074;2023-06-22T13:17:55;10.10;;;8.00;;
80714;SDS011;70086;50.780;15.074;2023-06-22T13:18:16;8.23;;;7.43;;
80714;SDS011;70086;50.780;15.074;2023-06-22T13:18:37;8.00;;;7.20;;
80714;SDS011;70086;50.780;15.074;2023-06-22T13:18:58;9.18;;;7.95;;
80714;SDS011;70086;50.780;15.074;2023-06-22T13:19:19;9.63;;;7.90;;
80714;SDS011;70086;50.780;15.074;2023-06-22T13:19:40;8.65;;;7.75;;
80714;SDS011;70086;50.780;15.074;2023-06-22T13:20:01;8.80;;;8.00;;
80714;SDS011;70086;50.780;15.074;2023-06-22T13:20:24;8.55;;;7.75;;
80714;SDS011;70086;50.780;15.074;2023-06-22T13:20:45;8.60;;;7.70;;
80714;SDS011;70086;50.780;15.074;2023-06-22T13:21:06;9.23;;;8.32;;
80714;SDS011;70086;50.780;15.074;2023-06-22T13:21:27;9.23;;;8.32;;
80714;SDS011;70086;50.780;15.074;2023-06-22T13:21:48;9.32;;;8.27;;
80714;SDS011;70086;50.780;15.074;2023-06-22T13:22:28;8.87;;;7.97;;
80714;SDS011;70086;50.780;15.074;2023-06-22T13:22:50;9.32;;;8.43;;
80714;SDS011;70086;50.780;15.074;2023-06-22T13:23:11;8.75;;;7.95;;
80714;SDS011;70086;50.780;15.074;2023-06-22T13:23:32;9.15;;;8.25;;
80714;SDS011;70086;50.780;15.074;2023-06-22T13:23:54;9.10;;;8.20;;
80714;SDS011;70086;50.780;15.074;2023-06-22T13:24:15;8.77;;;7.97;;
80714;SDS011;70086;50.780;15.074;2023-06-22T13:24:36;9.48;;;8.57;;
80714;SDS011;70086;50.780;15.074;2023-06-22T13:24:57;9.65;;;8.65;;
80714;SDS011;70086;50.780;15.074;2023-06-22T13:25:19;10.02;;;9.00;;
80714;SDS011;70086;50.780;15.074;2023-06-22T13:25:42;9.52;;;8.63;;
80714;SDS011;70086;50.780;15.074;2023-06-22T13:26:03;9.43;;;8.38;;
80714;SDS011;70086;50.780;15.074;2023-06-22T13:26:24;9.43;;;8.43;;
80714;SDS011;70086;50.780;15.074;2023-06-22T13:26:45;9.40;;;8.50;;
80714;SDS011;70086;50.780;15.074;2023-06-22T13:27:06;10.02;;;8.43;;
80714;SDS011;70086;50.780;15.074;2023-06-22T13:27:27;9.77;;;8.20;;
80714;SDS011;70086;50.780;15.074;2023-06-22T13:27:48;9.25;;;8.35;;
80714;SDS011;70086;50.780;15.074;2023-06-22T13:28:09;8.38;;;7.57;;
80714;SDS011;70086;50.780;15.074;2023-06-22T13:28:30;8.48;;;7.63;;
80714;SDS011;70086;50.780;15.074;2023-06-22T13:28:52;8.85;;;8.05;;
80714;SDS011;70086;50.780;15.074;2023-06-22T13:29:13;9.00;;;8.20;;
80714;SDS011;70086;50.780;15.074;2023-06-22T13:29:34;8.93;;;8.13;;
80714;SDS011;70086;50.780;15.074;2023-06-22T13:29:55;8.90;;;7.90;;
80714;SDS011;70086;50.780;15.074;2023-06-22T13:30:16;9.43;;;8.27;;
80714;SDS011;70086;50.780;15.074;2023-06-22T13:30:37;9.23;;;8.32;;
80714;SDS011;70086;50.780;15.074;2023-06-22T13:30:58;8.63;;;7.78;;
80714;SDS011;70086;50.780;15.074;2023-06-22T13:31:19;8.27;;;7.47;;
80714;SDS011;70086;50.780;15.074;2023-06-22T13:31:40;8.75;;;7.35;;
80714;SDS011;70086;50.780;15.074;2023-06-22T13:32:02;8.30;;;7.17;;
80714;SDS011;70086;50.780;15.074;2023-06-22T13:32:23;8.00;;;7.10;;
80714;SDS011;70086;50.780;15.074;2023-06-22T13:32:44;8.05;;;7.25;;
80714;SDS011;70086;50.780;15.074;2023-06-22T13:33:05;8.00;;;7.10;;
80714;SDS011;70086;50.780;15.074;2023-06-22T13:33:26;8.52;;;7.05;;
80714;SDS011;70086;50.780;15.074;2023-06-22T13:33:47;8.15;;;7.32;;
80714;SDS011;70086;50.780;15.074;2023-06-22T13:34:08;8.60;;;7.80;;
80714;SDS011;70086;50.780;15.074;2023-06-22T13:34:29;8.25;;;7.45;;
80714;SDS011;70086;50.780;15.074;2023-06-22T13:34:51;7.65;;;6.85;;
80714;SDS011;70086;50.780;15.074;2023-06-22T13:35:12;7.83;;;7.03;;
80714;SDS011;70086;50.780;15.074;2023-06-22T13:35:34;8.43;;;7.07;;
80714;SDS011;70086;50.780;15.074;2023-06-22T13:35:58;8.10;;;7.20;;
80714;SDS011;70086;50.780;15.074;2023-06-22T13:36:19;7.90;;;7.10;;
80714;SDS011;70086;50.780;15.074;2023-06-22T13:36:40;7.70;;;7.00;;
80714;SDS011;70086;50.780;15.074;2023-06-22T13:37:01;8.05;;;7.25;;
80714;SDS011;70086;50.780;15.074;2023-06-22T13:37:22;8.23;;;7.43;;
80714;SDS011;70086;50.780;15.074;2023-06-22T13:37:43;8.55;;;7.40;;
80714;SDS011;70086;50.780;15.074;2023-06-22T13:38:04;8.35;;;7.50;;
80714;SDS011;70086;50.780;15.074;2023-06-22T13:38:25;7.85;;;7.05;;
80714;SDS011;70086;50.780;15.074;2023-06-22T13:38:46;8.68;;;7.45;;
80714;SDS011;70086;50.780;15.074;2023-06-22T13:39:07;8.47;;;7.63;;
80714;SDS011;70086;50.780;15.074;2023-06-22T13:39:28;8.50;;;6.90;;
80714;SDS011;70086;50.780;15.074;2023-06-22T13:39:49;7.85;;;7.05;;
80714;SDS011;70086;50.780;15.074;2023-06-22T13:40:10;8.25;;;7.40;;
80714;SDS011;70086;50.780;15.074;2023-06-22T13:40:31;9.00;;;7.32;;
80714;SDS011;70086;50.780;15.074;2023-06-22T13:40:52;8.35;;;7.55;;
80714;SDS011;70086;50.780;15.074;2023-06-22T13:41:15;8.57;;;7.35;;
80714;SDS011;70086;50.780;15.074;2023-06-22T13:41:37;7.88;;;7.07;;
80714;SDS011;70086;50.780;15.074;2023-06-22T13:41:58;7.93;;;7.13;;
80714;SDS011;70086;50.780;15.074;2023-06-22T13:42:19;7.95;;;7.13;;
80714;SDS011;70086;50.780;15.074;2023-06-22T13:42:40;8.48;;;7.53;;
80714;SDS011;70086;50.780;15.074;2023-06-22T13:43:01;8.02;;;7.20;;
80714;SDS011;70086;50.780;15.074;2023-06-22T13:43:22;8.18;;;7.38;;
80714;SDS011;70086;50.780;15.074;2023-06-22T13:43:43;7.55;;;6.80;;
80714;SDS011;70086;50.780;15.074;2023-06-22T13:44:04;8.35;;;7.43;;
80714;SDS011;70086;50.780;15.074;2023-06-22T13:44:25;8.43;;;7.32;;
80714;SDS011;70086;50.780;15.074;2023-06-22T13:44:48;8.57;;;7.18;;
80714;SDS011;70086;50.780;15.074;2023-06-22T13:45:09;8.20;;;7.13;;
80714;SDS011;70086;50.780;15.074;2023-06-22T13:45:31;7.65;;;6.95;;
80714;SDS011;70086;50.780;15.074;2023-06-22T13:45:51;7.85;;;7.03;;
80714;SDS011;70086;50.780;15.074;2023-06-22T13:46:12;8.73;;;7.68;;
80714;SDS011;70086;50.780;15.074;2023-06-22T13:46:33;8.65;;;7.63;;
80714;SDS011;70086;50.780;15.074;2023-06-22T13:46:55;8.80;;;7.00;;
80714;SDS011;70086;50.780;15.074;2023-06-22T13:47:15;8.48;;;7.10;;
80714;SDS011;70086;50.780;15.074;2023-06-22T13:47:36;7.68;;;6.80;;
80714;SDS011;70086;50.780;15.074;2023-06-22T13:47:58;7.50;;;6.75;;
80714;SDS011;70086;50.780;15.074;2023-06-22T13:48:19;8.18;;;6.97;;
80714;SDS011;70086;50.780;15.074;2023-06-22T13:48:40;8.20;;;7.40;;
80714;SDS011;70086;50.780;15.074;2023-06-22T13:49:01;7.68;;;6.88;;
80714;SDS011;70086;50.780;15.074;2023-06-22T13:49:22;8.13;;;7.28;;
80714;SDS011;70086;50.780;15.074;2023-06-22T13:49:43;8.48;;;7.57;;
80714;SDS011;70086;50.780;15.074;2023-06-22T13:50:04;8.10;;;7.27;;
80714;SDS011;70086;50.780;15.074;2023-06-22T13:50:25;9.55;;;7.70;;
80714;SDS011;70086;50.780;15.074;2023-06-22T13:50:46;8.75;;;7.63;;
80714;SDS011;70086;50.780;15.074;2023-06-22T13:51:07;8.20;;;7.27;;
80714;SDS011;70086;50.780;15.074;2023-06-22T13:51:28;9.20;;;7.60;;
80714;SDS011;70086;50.780;15.074;2023-06-22T13:51:49;8.68;;;7.43;;
80714;SDS011;70086;50.780;15.074;2023-06-22T13:52:10;8.57;;;7.32;;
80714;SDS011;70086;50.780;15.074;2023-06-22T13:52:32;8.77;;;7.55;;
80714;SDS011;70086;50.780;15.074;2023-06-22T13:52:53;8.38;;;7.47;;
80714;SDS011;70086;50.780;15.074;2023-06-22T13:53:14;8.40;;;7.50;;
80714;SDS011;70086;50.780;15.074;2023-06-22T13:53:35;8.93;;;7.53;;
80714;SDS011;70086;50.780;15.074;2023-06-22T13:53:56;9.40;;;7.55;;
80714;SDS011;70086;50.780;15.074;2023-06-22T13:54:17;8.07;;;7.28;;
80714;SDS011;70086;50.780;15.074;2023-06-22T13:54:38;9.05;;;7.90;;
80714;SDS011;70086;50.780;15.074;2023-06-22T13:54:59;9.13;;;8.25;;
80714;SDS011;70086;50.780;15.074;2023-06-22T13:55:21;8.90;;;8.10;;
80714;SDS011;70086;50.780;15.074;2023-06-22T13:55:43;8.70;;;7.90;;
80714;SDS011;70086;50.780;15.074;2023-06-22T13:56:04;8.45;;;7.65;;
80714;SDS011;70086;50.780;15.074;2023-06-22T13:56:25;8.35;;;7.55;;
80714;SDS011;70086;50.780;15.074;2023-06-22T13:56:46;8.43;;;7.30;;
80714;SDS011;70086;50.780;15.074;2023-06-22T13:57:07;8.85;;;7.55;;
80714;SDS011;70086;50.780;15.074;2023-06-22T13:57:28;8.75;;;7.90;;
80714;SDS011;70086;50.780;15.074;2023-06-22T13:57:49;8.85;;;7.95;;
80714;SDS011;70086;50.780;15.074;2023-06-22T13:58:11;8.43;;;7.65;;
80714;SDS011;70086;50.780;15.074;2023-06-22T13:58:32;8.73;;;7.65;;
80714;SDS011;70086;50.780;15.074;2023-06-22T13:58:53;9.02;;;8.13;;
80714;SDS011;70086;50.780;15.074;2023-06-22T13:59:14;9.10;;;8.20;;
80714;SDS011;70086;50.780;15.074;2023-06-22T13:59:35;9.25;;;8.13;;
80714;SDS011;70086;50.780;15.074;2023-06-22T13:59:56;10.63;;;8.80;;
80714;SDS011;70086;50.780;15.074;2023-06-22T14:00:17;9.77;;;8.98;;
80714;SDS011;70086;50.780;15.074;2023-06-22T14:00:38;9.68;;;8.77;;
80714;SDS011;70086;50.780;15.074;2023-06-22T14:00:59;9.75;;;8.82;;
80714;SDS011;70086;50.780;15.074;2023-06-22T14:01:20;10.20;;;9.23;;
80714;SDS011;70086;50.780;15.074;2023-06-22T14:01:41;9.63;;;8.73;;
80714;SDS011;70086;50.780;15.074;2023-06-22T14:02:03;9.88;;;8.88;;
80714;SDS011;70086;50.780;15.074;2023-06-22T14:02:25;9.75;;;8.85;;
80714;SDS011;70086;50.780;15.074;2023-06-22T14:02:46;10.50;;;9.45;;
80714;SDS011;70086;50.780;15.074;2023-06-22T14:03:07;10.40;;;9.43;;
80714;SDS011;70086;50.780;15.074;2023-06-22T14:03:28;10.18;;;9.30;;
80714;SDS011;70086;50.780;15.074;2023-06-22T14:03:49;10.55;;;9.65;;
80714;SDS011;70086;50.780;15.074;2023-06-22T14:04:10;10.45;;;9.48;;
80714;SDS011;70086;50.780;15.074;2023-06-22T14:04:31;10.90;;;9.82;;
80714;SDS011;70086;50.780;15.074;2023-06-22T14:04:52;10.90;;;9.85;;
80714;SDS011;70086;50.780;15.074;2023-06-22T14:05:13;10.93;;;9.93;;
80714;SDS011;70086;50.780;15.074;2023-06-22T14:05:34;10.55;;;9.60;;
80714;SDS011;70086;50.780;15.074;2023-06-22T14:05:55;10.40;;;9.40;;
80714;SDS011;70086;50.780;15.074;2023-06-22T14:06:18;10.60;;;9.60;;
80714;SDS011;70086;50.780;15.074;2023-06-22T14:06:39;10.27;;;9.35;;
80714;SDS011;70086;50.780;15.074;2023-06-22T14:07:00;10.98;;;9.98;;
80714;SDS011;70086;50.780;15.074;2023-06-22T14:07:20;10.27;;;9.38;;
80714;SDS011;70086;50.780;15.074;2023-06-22T14:07:42;9.25;;;8.40;;
80714;SDS011;70086;50.780;15.074;2023-06-22T14:08:03;9.90;;;8.95;;
80714;SDS011;70086;50.780;15.074;2023-06-22T14:08:24;10.13;;;9.23;;
80714;SDS011;70086;50.780;15.074;2023-06-22T14:08:45;10.18;;;9.38;;
80714;SDS011;70086;50.780;15.074;2023-06-22T14:09:06;9.93;;;8.90;;
80714;SDS011;70086;50.780;15.074;2023-06-22T14:09:27;10.43;;;9.45;;
80714;SDS011;70086;50.780;15.074;2023-06-22T14:09:48;10.55;;;9.65;;
80714;SDS011;70086;50.780;15.074;2023-06-22T14:10:09;10.48;;;9.48;;
80714;SDS011;70086;50.780;15.074;2023-06-22T14:10:30;9.88;;;8.88;;
80714;SDS011;70086;50.780;15.074;2023-06-22T14:10:51;10.13;;;9.10;;
80714;SDS011;70086;50.780;15.074;2023-06-22T14:11:13;10.43;;;9.38;;
80714;SDS011;70086;50.780;15.074;2023-06-22T14:11:34;11.07;;;10.07;;
80714;SDS011;70086;50.780;15.074;2023-06-22T14:11:55;10.65;;;9.55;;
80714;SDS011;70086;50.780;15.074;2023-06-22T14:12:16;10.70;;;9.85;;
80714;SDS011;70086;50.780;15.074;2023-06-22T14:12:38;10.68;;;9.77;;
80714;SDS011;70086;50.780;15.074;2023-06-22T14:12:59;9.40;;;8.60;;
80714;SDS011;70086;50.780;15.074;2023-06-22T14:13:20;9.53;;;8.63;;
80714;SDS011;70086;50.780;15.074;2023-06-22T14:13:41;11.00;;;10.00;;
80714;SDS011;70086;50.780;15.074;2023-06-22T14:14:03;10.02;;;8.98;;
80714;SDS011;70086;50.780;15.074;2023-06-22T14:14:23;9.27;;;8.38;;
80714;SDS011;70086;50.780;15.074;2023-06-22T14:14:45;9.05;;;8.20;;
80714;SDS011;70086;50.780;15.074;2023-06-22T14:15:06;9.02;;;8.20;;
80714;SDS011;70086;50.780;15.074;2023-06-22T14:15:27;9.93;;;9.02;;
80714;SDS011;70086;50.780;15.074;2023-06-22T14:15:48;10.60;;;9.70;;
80714;SDS011;70086;50.780;15.074;2023-06-22T14:16:09;9.55;;;8.65;;
80714;SDS011;70086;50.780;15.074;2023-06-22T14:16:30;10.20;;;9.30;;
80714;SDS011;70086;50.780;15.074;2023-06-22T14:16:51;9.97;;;9.07;;
80714;SDS011;70086;50.780;15.074;2023-06-22T14:17:12;9.55;;;8.57;;
80714;SDS011;70086;50.780;15.074;2023-06-22T14:17:33;10.73;;;9.57;;
80714;SDS011;70086;50.780;15.074;2023-06-22T14:17:54;10.82;;;9.73;;
80714;SDS011;70086;50.780;15.074;2023-06-22T14:18:15;10.35;;;9.35;;
80714;SDS011;70086;50.780;15.074;2023-06-22T14:18:36;10.35;;;9.40;;
80714;SDS011;70086;50.780;15.074;2023-06-22T14:18:57;11.07;;;10.05;;
80714;SDS011;70086;50.780;15.074;2023-06-22T14:19:18;10.65;;;9.65;;
80714;SDS011;70086;50.780;15.074;2023-06-22T14:19:39;9.70;;;8.80;;
80714;SDS011;70086;50.780;15.074;2023-06-22T14:19:59;10.55;;;9.65;;
80714;SDS011;70086;50.780;15.074;2023-06-22T14:20:20;10.90;;;9.90;;
80714;SDS011;70086;50.780;15.074;2023-06-22T14:20:42;10.73;;;9.73;;
80714;SDS011;70086;50.780;15.074;2023-06-22T14:21:03;10.65;;;9.65;;
80714;SDS011;70086;50.780;15.074;2023-06-22T14:21:25;10.60;;;9.60;;
80714;SDS011;70086;50.780;15.074;2023-06-22T14:21:46;10.32;;;9.43;;
80714;SDS011;70086;50.780;15.074;2023-06-22T14:22:07;10.18;;;9.38;;
80714;SDS011;70086;50.780;15.074;2023-06-22T14:22:28;10.90;;;9.82;;
80714;SDS011;70086;50.780;15.074;2023-06-22T14:22:49;10.77;;;9.77;;
80714;SDS011;70086;50.780;15.074;2023-06-22T14:23:10;10.43;;;9.52;;
80714;SDS011;70086;50.780;15.074;2023-06-22T14:23:31;10.68;;;9.68;;
80714;SDS011;70086;50.780;15.074;2023-06-22T14:23:52;10.02;;;9.13;;
80714;SDS011;70086;50.780;15.074;2023-06-22T14:24:13;10.82;;;9.93;;
80714;SDS011;70086;50.780;15.074;2023-06-22T14:24:34;10.05;;;9.15;;
80714;SDS011;70086;50.780;15.074;2023-06-22T14:24:55;9.80;;;9.00;;
80714;SDS011;70086;50.780;15.074;2023-06-22T14:25:17;9.82;;;8.93;;
80714;SDS011;70086;50.780;15.074;2023-06-22T14:25:38;9.35;;;8.30;;
80714;SDS011;70086;50.780;15.074;2023-06-22T14:25:59;9.27;;;8.38;;
80714;SDS011;70086;50.780;15.074;2023-06-22T14:26:20;9.95;;;8.95;;
80714;SDS011;70086;50.780;15.074;2023-06-22T14:26:42;9.52;;;8.63;;
80714;SDS011;70086;50.780;15.074;2023-06-22T14:27:03;9.35;;;8.40;;
80714;SDS011;70086;50.780;15.074;2023-06-22T14:27:27;10.00;;;9.02;;
80714;SDS011;70086;50.780;15.074;2023-06-22T14:27:48;9.55;;;8.75;;
80714;SDS011;70086;50.780;15.074;2023-06-22T14:28:09;9.77;;;8.95;;
80714;SDS011;70086;50.780;15.074;2023-06-22T14:28:30;9.55;;;8.65;;
80714;SDS011;70086;50.780;15.074;2023-06-22T14:28:52;9.32;;;8.52;;
80714;SDS011;70086;50.780;15.074;2023-06-22T14:29:13;8.73;;;8.00;;
80714;SDS011;70086;50.780;15.074;2023-06-22T14:29:35;9.80;;;8.90;;
80714;SDS011;70086;50.780;15.074;2023-06-22T14:29:56;9.93;;;8.88;;
80714;SDS011;70086;50.780;15.074;2023-06-22T14:30:17;10.50;;;9.43;;
80714;SDS011;70086;50.780;15.074;2023-06-22T14:30:38;10.70;;;9.13;;
80714;SDS011;70086;50.780;15.074;2023-06-22T14:30:59;9.80;;;8.90;;
80714;SDS011;70086;50.780;15.074;2023-06-22T14:31:20;10.32;;;9.40;;
80714;SDS011;70086;50.780;15.074;2023-06-22T14:31:44;9.75;;;8.85;;
80714;SDS011;70086;50.780;15.074;2023-06-22T14:32:05;9.75;;;8.90;;
80714;SDS011;70086;50.780;15.074;2023-06-22T14:32:27;10.15;;;9.15;;
80714;SDS011;70086;50.780;15.074;2023-06-22T14:32:51;9.75;;;8.85;;
80714;SDS011;70086;50.780;15.074;2023-06-22T14:33:13;10.13;;;9.10;;
80714;SDS011;70086;50.780;15.074;2023-06-22T14:33:34;10.20;;;9.23;;
80714;SDS011;70086;50.780;15.074;2023-06-22T14:33:55;9.90;;;9.10;;
80714;SDS011;70086;50.780;15.074;2023-06-22T14:34:16;9.43;;;8.63;;
80714;SDS011;70086;50.780;15.074;2023-06-22T14:34:37;9.52;;;8.63;;
80714;SDS011;70086;50.780;15.074;2023-06-22T14:34:59;10.07;;;8.98;;
80714;SDS011;70086;50.780;15.074;2023-06-22T14:35:20;11.02;;;8.98;;
80714;SDS011;70086;50.780;15.074;2023-06-22T14:35:41;10.68;;;8.73;;
80714;SDS011;70086;50.780;15.074;2023-06-22T14:36:04;10.40;;;9.40;;
80714;SDS011;70086;50.780;15.074;2023-06-22T14:36:25;9.63;;;8.73;;
80714;SDS011;70086;50.780;15.074;2023-06-22T14:36:46;9.45;;;8.50;;
80714;SDS011;70086;50.780;15.074;2023-06-22T14:37:07;9.63;;;8.43;;
80714;SDS011;70086;50.780;15.074;2023-06-22T14:37:32;9.95;;;8.95;;
80714;SDS011;70086;50.780;15.074;2023-06-22T14:37:56;11.07;;;8.90;;
80714;SDS011;70086;50.780;15.074;2023-06-22T14:38:17;10.10;;;8.90;;
80714;SDS011;70086;50.780;15.074;2023-06-22T14:38:38;10.13;;;9.18;;